Pagrindinis puslapis
METAR-TAF:

METAR-TAF

Oro uostai :

McGrath, Aliaska, Jungtinės Amerikos Valstijos

platuma: 62-58N, ilguma: 155-37W, Aukštis: 103 m

Dabartinis oras

Ataskaita buvo paskelbta 1 valandą ir 7 minutes, ne 03:53 UTC
Vėjas 8 kt iš Šiaurės Rytų
Temperatūra -22°C
Drėgmė 70%
Slėgis 1021 hPa
Matomumas: 16.1 km
Giedras dangus

METAR: PAMC 290353Z AUTO 05008KT 10SM CLR M22/M26 A3014 RMK AO2 SLP225 T12171261 TSNO

Laikas: 20:00 (05:00 UTC)

Prognozė

Ataskaita buvo paskelbta 5 valandos ir 28 minutes, ne 23:32 UTC
Prognozė galioja nuo 29 metu 00 UTC su 29 metu 24 UTC
Vėjas 3 kt nuo kintamojo kryptimis
Matomumas: 10 km
Giedras dangus

TAF: PAMC 282332Z 2900/2924 VRB03KT P6SM SKC

Orai ataskaitas ir orų prognozės (METAR, TAF).

turimą stotys yra geltonos ir raudonos taškus žemėlapyje.

Perkelti pele per norėdami pamatyti stoties vardą.

Tada spustelėkite, norėdami matyti oro stebėjimo ir prognozės.

Norėdami pakeisti žemėlapį: spustelėkite ant žalios mygtukų su juodo kryžiaus žemyn,; žalią mygtuką su brūkšneliu, jei norite nutolinti; arba žalių rodyklių gretimoms žemėlapius.


METAR-TAF: